Time;durP1;ratioP1;P1;durP2;ratioP2;P2;SDS_P1;SDS_P2;PMS_P1;PMS_P2;Temp;Humidity;BMP_temperature;BMP_pressure;BME280_temperature;BME280_humidity;BME280_pressure;Samples;Min_cycle;Max_cycle;Signal;HPM_P1;HPM_P2
2021/01/02 00:00:13;;;;;;;9.83;6.12;;;;;;;4.30;86.90;98982.96;1779249;79;21170;-60
2021/01/02 00:03:01;;;;;;;9.58;5.22;;;;;;;4.35;86.78;98984.89;1779346;79;21127;-60
2021/01/02 00:05:34;;;;;;;10.08;5.80;;;;;;;4.38;86.67;98989.66;1779183;80;21261;-61
2021/01/02 00:08:19;;;;;;;13.15;6.00;;;;;;;4.41;86.55;98991.91;1778929;79;21151;-58
2021/01/02 00:11:20;;;;;;;13.75;6.65;;;;;;;4.46;86.44;98992.94;1768780;81;21392;-60
2021/01/02 00:14:12;;;;;;;15.07;7.43;;;;;;;4.51;86.25;99010.58;1779639;81;21143;-59
2021/01/02 00:17:00;;;;;;;16.52;7.58;;;;;;;4.51;86.06;99002.91;1744786;79;21523;-59
2021/01/02 00:19:49;;;;;;;19.15;8.40;;;;;;;4.53;85.92;99007.67;1779406;80;21293;-59
2021/01/02 00:22:56;;;;;;;14.53;8.30;;;;;;;4.52;85.89;99013.58;1779503;81;21609;-61
2021/01/02 00:25:28;;;;;;;18.00;9.18;;;;;;;4.51;85.80;99013.13;1779330;79;21143;-60
2021/01/02 00:28:17;;;;;;;16.82;8.75;;;;;;;4.48;85.68;99027.09;1781526;80;21170;-60
2021/01/02 00:31:21;;;;;;;16.37;8.75;;;;;;;4.48;85.60;99025.81;1793239;80;21154;-60
2021/01/02 00:34:10;;;;;;;15.95;8.50;;;;;;;4.48;85.38;99028.36;1793084;79;21217;-59
2021/01/02 00:36:42;;;;;;;14.98;7.50;;;;;;;4.42;85.07;99038.34;1792154;79;21166;-60
2021/01/02 00:39:18;;;;;;;14.58;8.55;;;;;;;4.42;85.02;99043.86;1793121;79;21126;-60
2021/01/02 00:41:47;;;;;;;15.88;7.95;;;;;;;4.40;84.82;99047.66;1792143;79;21330;-60
2021/01/02 00:44:15;;;;;;;14.38;7.10;;;;;;;4.41;84.56;99051.95;1793292;80;21130;-61
2021/01/02 00:46:43;;;;;;;13.48;7.03;;;;;;;4.38;84.28;99055.67;1793302;79;21276;-59
2021/01/02 00:49:12;;;;;;;13.53;7.30;;;;;;;4.35;84.13;99056.81;1793146;79;21151;-60
2021/01/02 00:51:45;;;;;;;13.20;7.75;;;;;;;4.28;84.00;99059.97;1793172;80;21158;-59
2021/01/02 00:54:21;;;;;;;13.90;7.65;;;;;;;4.21;83.79;99065.66;1793010;79;21265;-59
2021/01/02 00:57:06;;;;;;;15.43;7.12;;;;;;;4.24;83.68;99065.77;1879471;75;22180;-61
2021/01/02 00:59:57;;;;;;;13.60;7.25;;;;;;;4.21;83.64;99073.33;1739355;81;21136;-59
2021/01/02 01:02:58;;;;;;;13.50;7.30;;;;;;;4.24;83.38;99074.71;1787704;80;21142;-57
2021/01/02 01:05:41;;;;;;;14.85;8.23;;;;;;;4.23;83.41;99071.70;1768762;81;21136;-61
2021/01/02 01:08:11;;;;;;;15.45;7.87;;;;;;;4.23;83.39;99078.09;1760262;80;21162;-60
2021/01/02 01:10:39;;;;;;;14.53;7.72;;;;;;;4.20;83.13;99072.84;1768755;81;21153;-59
2021/01/02 01:13:21;;;;;;;13.58;7.22;;;;;;;4.13;83.26;99084.11;1788715;80;21119;-59
2021/01/02 01:15:50;;;;;;;17.20;8.40;;;;;;;4.09;83.16;99083.52;1768854;81;21283;-60
2021/01/02 01:18:47;;;;;;;13.62;7.03;;;;;;;4.05;83.38;99080.41;1788667;80;21313;-59
2021/01/02 01:21:18;;;;;;;13.90;7.85;;;;;;;4.05;83.31;99085.51;1767945;80;21290;-57
2021/01/02 01:24:12;;;;;;;13.45;7.35;;;;;;;4.09;83.17;99088.63;1788458;80;21151;-61
2021/01/02 01:27:04;;;;;;;12.15;6.87;;;;;;;4.08;83.08;99083.06;1768814;81;21153;-58
2021/01/02 01:30:01;;;;;;;13.50;7.80;;;;;;;4.09;83.02;99091.59;1788672;80;21285;-62
2021/01/02 01:32:30;;;;;;;14.38;6.72;;;;;;;4.07;83.01;99099.22;1768794;80;21282;-60
2021/01/02 01:35:03;;;;;;;15.13;7.40;;;;;;;4.05;82.69;99099.97;1788760;80;21295;-59
2021/01/02 01:37:33;;;;;;;13.83;7.47;;;;;;;3.99;82.58;99099.70;1768877;80;21686;-59
2021/01/02 01:40:01;;;;;;;14.18;7.65;;;;;;;3.98;82.49;99109.05;1788691;80;21731;-57
2021/01/02 01:42:44;;;;;;;12.98;7.75;;;;;;;3.94;82.42;99102.08;1768902;81;21148;-58
2021/01/02 01:45:41;;;;;;;13.25;7.05;;;;;;;3.92;82.33;99111.38;1788679;80;21194;-60
2021/01/02 01:48:16;;;;;;;13.90;6.87;;;;;;;3.90;81.86;99106.61;1768687;80;21287;-57
2021/01/02 01:51:13;;;;;;;12.55;7.33;;;;;;;3.86;81.70;99118.77;1788602;80;21157;-59
2021/01/02 01:53:58;;;;;;;14.98;7.58;;;;;;;3.85;81.51;99119.59;1768228;80;21283;-59
2021/01/02 01:56:33;;;;;;;11.97;6.58;;;;;;;3.82;81.43;99128.42;1779328;80;21170;-57
2021/01/02 01:59:20;;;;;;;11.57;6.45;;;;;;;3.80;81.48;99128.75;1755243;82;21165;-59
2021/01/02 02:01:55;;;;;;;10.68;6.40;;;;;;;3.78;81.18;99134.20;1775243;80;21139;-59
2021/01/02 02:04:51;;;;;;;11.53;6.75;;;;;;;3.70;80.87;99135.16;1755477;82;21327;-60
2021/01/02 02:07:20;;;;;;;14.75;6.75;;;;;;;3.67;80.94;99129.53;1770316;81;21171;-60
2021/01/02 02:09:59;;;;;;;11.12;6.45;;;;;;;3.61;80.71;99143.33;1754896;82;21161;-59
2021/01/02 02:12:34;;;;;;;12.55;6.67;;;;;;;3.58;79.80;99139.75;1772900;80;21711;-59
2021/01/02 02:15:07;;;;;;;10.50;6.05;;;;;;;3.46;79.50;99147.37;1754735;81;21157;-59
2021/01/02 02:17:42;;;;;;;13.13;7.00;;;;;;;3.36;79.40;99140.53;1774408;81;21293;-60
2021/01/02 02:20:14;;;;;;;10.10;5.72;;;;;;;3.19;79.68;99151.30;1754982;82;21173;-60
2021/01/02 02:22:43;;;;;;;13.88;7.25;;;;;;;3.12;79.86;99150.16;1755487;81;21170;-58
2021/01/02 02:25:17;;;;;;;13.40;7.45;;;;;;;3.10;80.19;99158.13;1754891;82;21149;-60
2021/01/02 02:27:47;;;;;;;12.35;6.47;;;;;;;3.11;80.34;99161.58;1774566;81;21171;-60
2021/01/02 02:30:29;;;;;;;16.30;6.65;;;;;;;3.10;80.83;99165.78;1754731;82;21279;-61
2021/01/02 02:32:57;;;;;;;13.05;7.03;;;;;;;3.11;80.85;99161.17;1774666;80;21138;-59
2021/01/02 02:35:25;;;;;;;15.10;7.85;;;;;;;3.14;80.82;99173.18;1754833;80;21145;-60
2021/01/02 02:37:53;;;;;;;16.23;7.58;;;;;;;3.12;80.87;99170.55;1774620;81;21308;-59
2021/01/02 02:40:23;;;;;;;13.53;7.67;;;;;;;3.14;80.92;99174.05;1754990;80;21295;-59
2021/01/02 02:43:01;;;;;;;14.78;7.37;;;;;;;3.17;80.90;99185.66;1774529;81;21147;-58
2021/01/02 02:45:32;;;;;;;12.93;6.87;;;;;;;3.18;80.58;99181.04;1754766;82;21315;-60
2021/01/02 02:48:04;;;;;;;13.38;7.90;;;;;;;3.17;80.39;99182.23;1774646;81;21609;-60
2021/01/02 02:50:33;;;;;;;14.03;7.25;;;;;;;3.13;80.40;99181.24;1754878;80;21170;-60
2021/01/02 02:53:07;;;;;;;13.30;6.90;;;;;;;3.11;80.48;99188.36;1774328;81;21159;-60
2021/01/02 02:55:40;;;;;;;15.03;7.80;;;;;;;3.06;80.62;99180.91;1754693;81;21157;-60
2021/01/02 02:58:11;;;;;;;18.57;10.30;;;;;;;3.02;80.72;99196.45;1774410;80;21200;-60
2021/01/02 03:00:39;;;;;;;16.30;9.23;;;;;;;3.00;80.87;99195.13;1754655;80;21161;-57
2021/01/02 03:03:10;;;;;;;16.52;8.43;;;;;;;3.01;81.03;99202.37;1754824;80;21200;-59
2021/01/02 03:05:40;;;;;;;18.40;8.93;;;;;;;3.02;81.02;99215.57;1755090;81;21153;-61
2021/01/02 03:08:08;;;;;;;15.28;8.83;;;;;;;3.05;81.09;99215.70;1754905;80;21347;-59
2021/01/02 03:10:36;;;;;;;17.95;9.20;;;;;;;3.08;80.89;99228.61;1754704;80;21599;-61
2021/01/02 03:13:03;;;;;;;17.30;8.75;;;;;;;3.08;80.63;99227.34;1754773;81;21149;-59
2021/01/02 03:15:38;;;;;;;14.53;8.13;;;;;;;3.02;80.35;99221.94;1754725;80;21272;-58
2021/01/02 03:18:07;;;;;;;15.58;8.08;;;;;;;2.89;80.29;99231.13;1754884;82;21561;-59
2021/01/02 03:20:35;;;;;;;14.07;8.10;;;;;;;2.79;80.20;99230.69;1754755;82;21153;-58
2021/01/02 03:23:03;;;;;;;13.13;8.23;;;;;;;2.70;80.34;99234.11;1754716;81;21295;-59
2021/01/02 03:25:31;;;;;;;13.90;8.23;;;;;;;2.66;80.54;99246.22;1754683;80;21303;-60
2021/01/02 03:27:59;;;;;;;15.28;9.20;;;;;;;2.64;80.58;99233.80;1754670;82;21145;-60
2021/01/02 03:30:27;;;;;;;16.27;9.58;;;;;;;2.57;80.82;99229.22;1754741;80;21300;-60
2021/01/02 03:32:56;;;;;;;13.50;8.55;;;;;;;2.52;81.29;99225.58;1754972;82;21174;-60
2021/01/02 03:35:24;;;;;;;15.43;9.10;;;;;;;2.54;81.25;99238.00;1754526;82;21307;-60
2021/01/02 03:37:51;;;;;;;13.48;8.33;;;;;;;2.54;81.38;99235.45;1754907;80;21288;-60
2021/01/02 03:40:19;;;;;;;14.73;8.63;;;;;;;2.56;81.42;99229.63;1754646;82;21153;-59
2021/01/02 03:42:47;;;;;;;13.72;8.20;;;;;;;2.59;81.42;99232.31;1754935;82;21304;-59
2021/01/02 03:45:17;;;;;;;12.95;8.03;;;;;;;2.63;81.39;99244.81;1754602;81;21158;-61
2021/01/02 03:47:47;;;;;;;15.68;9.13;;;;;;;2.64;81.37;99235.08;1754909;80;21170;-59
2021/01/02 03:50:16;;;;;;;15.38;9.80;;;;;;;2.62;81.29;99244.35;1754783;82;21323;-59
2021/01/02 03:52:44;;;;;;;19.67;10.90;;;;;;;2.57;81.49;99245.41;1754633;82;21181;-59
2021/01/02 03:55:13;;;;;;;21.85;11.57;;;;;;;2.56;81.68;99249.14;1774329;81;21293;-61
2021/01/02 03:57:42;;;;;;;16.73;10.05;;;;;;;2.54;81.73;99250.73;1769957;81;21162;-59
2021/01/02 04:00:13;;;;;;;15.98;9.28;;;;;;;2.50;81.90;99255.23;1820883;78;21103;-59
2021/01/02 04:02:41;;;;;;;18.52;10.23;;;;;;;2.46;81.98;99255.88;1848450;78;21143;-61
2021/01/02 04:05:11;;;;;;;16.17;9.35;;;;;;;2.43;82.05;99259.55;1848219;77;21147;-60
2021/01/02 04:07:39;;;;;;;18.32;9.63;;;;;;;2.37;82.20;99267.38;1848482;78;21154;-59
2021/01/02 04:10:09;;;;;;;17.30;9.28;;;;;;;2.33;82.32;99269.28;1848248;78;21138;-59
2021/01/02 04:12:37;;;;;;;17.65;9.43;;;;;;;2.28;82.40;99272.02;1848446;78;21174;-60
2021/01/02 04:15:06;;;;;;;17.35;9.65;;;;;;;2.22;82.50;99273.00;1848534;78;21231;-60
2021/01/02 04:17:34;;;;;;;16.73;8.78;;;;;;;2.15;82.67;99270.95;1848315;77;21154;-59
2021/01/02 04:20:05;;;;;;;18.98;10.00;;;;;;;2.09;82.90;99275.75;1848251;78;21288;-59
2021/01/02 04:22:32;;;;;;;19.32;11.20;;;;;;;2.04;83.10;99287.38;1848487;78;21715;-59
2021/01/02 04:25:02;;;;;;;19.77;10.68;;;;;;;2.03;83.40;99288.16;1848216;78;21724;-60
2021/01/02 04:27:30;;;;;;;19.82;10.88;;;;;;;2.11;83.63;99307.22;1848182;78;21143;-59
2021/01/02 04:29:58;;;;;;;22.20;12.00;;;;;;;2.16;83.73;99298.14;1848166;78;21348;-61
2021/01/02 04:32:26;;;;;;;20.97;11.50;;;;;;;2.23;83.73;99305.29;1848346;78;21142;-57
2021/01/02 04:34:54;;;;;;;21.60;12.35;;;;;;;2.29;83.70;99304.34;1848335;78;21146;-58
2021/01/02 04:37:27;;;;;;;17.95;10.15;;;;;;;2.33;83.65;99315.13;1848416;78;21280;-57
2021/01/02 04:39:57;;;;;;;16.42;9.63;;;;;;;2.34;83.69;99316.89;1848524;78;21291;-60
2021/01/02 04:42:25;;;;;;;15.85;9.03;;;;;;;2.33;83.70;99324.04;1848229;77;21216;-60
2021/01/02 04:44:53;;;;;;;16.40;9.75;;;;;;;2.32;83.80;99311.25;1848146;78;21285;-59
2021/01/02 04:47:23;;;;;;;21.45;10.65;;;;;;;2.31;83.66;99316.72;1848250;78;21137;-60
2021/01/02 04:49:51;;;;;;;19.23;11.00;;;;;;;2.27;83.69;99312.29;1848399;78;21220;-58
2021/01/02 04:52:19;;;;;;;18.05;10.38;;;;;;;2.24;83.65;99326.16;1848510;78;21138;-58
2021/01/02 04:54:50;;;;;;;20.52;11.15;;;;;;;2.17;83.71;99324.96;1848186;77;21103;-59
2021/01/02 04:57:18;;;;;;;17.48;10.05;;;;;;;2.12;83.72;99329.35;1851899;77;21312;-60
2021/01/02 04:59:51;;;;;;;18.55;9.95;;;;;;;2.07;83.67;99348.62;1853968;77;21296;-59
2021/01/02 05:02:22;;;;;;;19.30;10.63;;;;;;;2.04;83.75;99347.19;1854109;77;21138;-59
2021/01/02 05:04:50;;;;;;;17.73;9.23;;;;;;;2.01;83.76;99348.28;1854212;77;21126;-57
2021/01/02 05:07:25;;;;;;;18.35;9.68;;;;;;;2.02;83.78;99357.69;1853793;77;21671;-57
2021/01/02 05:09:55;;;;;;;18.73;10.80;;;;;;;2.03;83.70;99351.79;1853810;77;21173;-59
2021/01/02 05:12:32;;;;;;;22.40;11.73;;;;;;;2.03;83.79;99352.66;1853896;77;21347;-59
2021/01/02 05:15:13;;;;;;;20.65;11.22;;;;;;;2.02;83.63;99364.05;1853341;77;21265;-60
2021/01/02 05:17:42;;;;;;;20.17;11.25;;;;;;;1.98;83.75;99366.81;1854117;77;21288;-58
2021/01/02 05:20:13;;;;;;;20.55;10.82;;;;;;;1.98;83.82;99362.13;1854011;77;21292;-57
2021/01/02 05:22:43;;;;;;;20.57;11.05;;;;;;;1.96;83.79;99365.89;1854070;77;21276;-59
2021/01/02 05:25:22;;;;;;;18.50;11.15;;;;;;;1.90;84.01;99372.79;1853907;77;21142;-60
2021/01/02 05:27:52;;;;;;;18.85;10.60;;;;;;;1.87;84.01;99376.45;1854075;77;21106;-59
2021/01/02 05:30:34;;;;;;;20.55;11.90;;;;;;;1.84;84.19;99377.98;1854037;77;21107;-60
2021/01/02 05:33:13;;;;;;;20.50;11.35;;;;;;;1.85;84.33;99385.67;1854004;77;21173;-61
2021/01/02 05:35:45;;;;;;;19.12;11.20;;;;;;;1.86;84.50;99388.72;1854167;77;21627;-61
2021/01/02 05:38:22;;;;;;;23.27;11.03;;;;;;;1.89;84.50;99386.73;1854256;77;21284;-57
2021/01/02 05:40:58;;;;;;;20.15;10.82;;;;;;;1.89;84.52;99397.77;1853953;77;21141;-64
2021/01/02 05:43:29;;;;;;;19.73;11.25;;;;;;;1.87;84.55;99406.98;1853998;77;21221;-59
2021/01/02 05:45:56;;;;;;;22.50;11.18;;;;;;;1.85;84.80;99411.12;1854036;77;21142;-61
2021/01/02 05:48:28;;;;;;;18.32;11.20;;;;;;;1.88;84.92;99401.13;1854143;77;21281;-59
2021/01/02 05:50:59;;;;;;;20.90;11.83;;;;;;;1.92;84.88;99413.20;1854208;77;21673;-60
2021/01/02 05:53:33;;;;;;;19.73;11.15;;;;;;;1.95;84.91;99406.98;1854454;77;21548;-61
2021/01/02 05:56:10;;;;;;;20.60;10.85;;;;;;;1.98;84.67;99414.31;1854174;77;21295;-60
2021/01/02 05:58:44;;;;;;;19.30;10.23;;;;;;;1.99;84.70;99417.36;1798171;80;21141;-62
2021/01/02 06:01:18;;;;;;;19.00;11.45;;;;;;;1.98;84.65;99433.40;1798031;80;21093;-61
2021/01/02 06:03:49;;;;;;;20.40;11.22;;;;;;;1.97;84.71;99441.84;1798157;80;21149;-60
2021/01/02 06:06:19;;;;;;;18.62;10.60;;;;;;;1.95;84.79;99447.70;1798252;78;21169;-60
2021/01/02 06:08:51;;;;;;;20.60;10.93;;;;;;;1.95;84.77;99451.52;1798341;78;21149;-61
2021/01/02 06:11:23;;;;;;;18.32;10.13;;;;;;;1.99;84.84;99454.26;1798169;78;21148;-59
2021/01/02 06:13:55;;;;;;;18.15;9.98;;;;;;;2.00;84.70;99436.91;1798459;78;21259;-57
2021/01/02 06:16:25;;;;;;;22.70;11.20;;;;;;;2.00;84.48;99459.41;1798385;80;21255;-59
2021/01/02 06:18:53;;;;;;;19.52;10.93;;;;;;;1.98;84.30;99455.03;1798333;78;21129;-59
2021/01/02 06:21:22;;;;;;;20.00;11.18;;;;;;;1.95;84.29;99460.44;1798470;80;21271;-59
2021/01/02 06:23:49;;;;;;;17.35;10.80;;;;;;;1.91;84.47;99464.03;1798159;80;21141;-59
2021/01/02 06:26:18;;;;;;;18.60;11.25;;;;;;;1.92;84.60;99460.28;1798208;78;21283;-59
2021/01/02 06:28:46;;;;;;;20.60;11.50;;;;;;;1.91;84.71;99464.91;1798255;80;21266;-60
2021/01/02 06:31:16;;;;;;;18.23;10.48;;;;;;;1.98;84.83;99468.63;1798583;80;21302;-59
2021/01/02 06:33:47;;;;;;;18.48;11.33;;;;;;;2.04;84.74;99476.61;1798443;78;21148;-58
2021/01/02 06:36:36;;;;;;;19.60;10.85;;;;;;;2.08;84.72;99480.17;1798465;78;21105;-58
2021/01/02 06:39:28;;;;;;;22.02;11.38;;;;;;;2.10;84.77;99476.92;1798491;78;21322;-60
2021/01/02 06:41:57;;;;;;;19.07;11.03;;;;;;;2.17;84.81;99483.22;1798431;78;21129;-60
2021/01/02 06:44:44;;;;;;;19.42;11.03;;;;;;;2.23;84.76;99483.53;1798082;79;21113;-59
2021/01/02 06:47:32;;;;;;;17.23;9.83;;;;;;;2.25;84.74;99478.53;1798353;80;21109;-59
2021/01/02 06:50:05;;;;;;;17.37;9.80;;;;;;;2.29;84.73;99486.41;1798009;78;21559;-59
2021/01/02 06:52:35;;;;;;;20.95;11.33;;;;;;;2.34;84.66;99482.44;1750442;80;21169;-60
2021/01/02 06:55:23;;;;;;;21.70;11.78;;;;;;;2.38;84.68;99494.52;1760379;80;21264;-58
2021/01/02 06:57:52;;;;;;;20.37;11.33;;;;;;;2.42;84.60;99493.02;1814105;78;21158;-59
2021/01/02 07:00:27;;;;;;;19.82;10.70;;;;;;;2.43;84.59;99511.72;1824599;77;21241;-61
2021/01/02 07:02:56;;;;;;;19.17;11.53;;;;;;;2.46;84.68;99511.88;1824679;78;21146;-58
2021/01/02 07:05:44;;;;;;;21.12;10.95;;;;;;;2.46;84.60;99509.32;1824823;77;21157;-60
2021/01/02 07:08:43;;;;;;;18.42;10.95;;;;;;;2.45;84.73;99510.13;1824885;79;21304;-60
2021/01/02 07:11:29;;;;;;;19.40;10.58;;;;;;;2.47;84.78;99511.96;1824576;79;21145;-59
2021/01/02 07:14:15;;;;;;;18.12;10.23;;;;;;;2.55;84.87;99520.87;1824768;79;21099;-61
2021/01/02 07:16:52;;;;;;;17.52;9.88;;;;;;;2.67;84.71;99521.91;1824645;77;21150;-59
2021/01/02 07:19:38;;;;;;;19.70;10.38;;;;;;;2.78;84.43;99516.95;1853559;77;22131;-61
2021/01/02 07:22:17;;;;;;;19.73;11.33;;;;;;;2.77;84.29;99520.30;1758932;81;21138;-60
2021/01/02 07:25:02;;;;;;;22.22;10.98;;;;;;;2.74;84.17;99517.58;1777266;81;21563;-61
2021/01/02 07:27:34;;;;;;;21.23;11.45;;;;;;;2.75;84.39;99523.17;1758816;81;21173;-62
2021/01/02 07:30:11;;;;;;;19.52;10.30;;;;;;;2.80;84.36;99525.55;1758965;81;21196;-61
2021/01/02 07:32:42;;;;;;;18.98;10.20;;;;;;;2.87;84.30;99530.53;1776986;80;21178;-59
2021/01/02 07:35:15;;;;;;;18.48;10.48;;;;;;;2.97;84.10;99540.40;1758852;81;21410;-59
2021/01/02 07:37:46;;;;;;;20.40;10.80;;;;;;;3.04;83.92;99546.70;1758836;81;21585;-60
2021/01/02 07:40:19;;;;;;;21.83;10.87;;;;;;;3.11;83.87;99542.38;1777085;81;21157;-60
2021/01/02 07:42:53;;;;;;;18.15;10.63;;;;;;;3.15;83.53;99552.33;1790029;80;21173;-59
2021/01/02 07:45:24;;;;;;;19.82;10.55;;;;;;;3.16;83.45;99557.52;1758906;81;21174;-60
2021/01/02 07:47:55;;;;;;;;;;;;;;;3.15;83.36;99564.67;1761374;81;21166;-60
2021/01/02 07:50:27;;;;;;;18.40;10.03;;;;;;;3.18;83.37;99567.40;1757830;81;20157;-61
2021/01/02 07:52:57;;;;;;;20.68;10.93;;;;;;;3.24;83.27;99578.30;1776902;80;21281;-60
2021/01/02 07:55:32;;;;;;;19.85;10.35;;;;;;;3.32;83.06;99576.13;1768469;80;21132;-65
2021/01/02 07:58:03;;;;;;;20.52;11.12;;;;;;;3.36;83.00;99581.46;1738021;82;21187;-62
2021/01/02 08:00:30;;;;;;;17.45;10.32;;;;;;;3.41;82.82;99583.84;1737918;82;21313;-62
2021/01/02 08:03:03;;;;;;;20.10;11.00;;;;;;;3.45;82.75;99586.12;1741658;81;21320;-64
2021/01/02 08:05:31;;;;;;;21.02;11.20;;;;;;;3.54;82.57;99585.72;1749946;81;21141;-57
2021/01/02 08:08:02;;;;;;;18.05;10.45;;;;;;;3.58;82.25;99593.98;1745678;81;21173;-62
2021/01/02 08:10:30;;;;;;;20.12;11.65;;;;;;;3.62;82.21;99586.55;1754535;81;21155;-62
2021/01/02 08:13:03;;;;;;;18.40;11.10;;;;;;;3.68;82.06;99600.00;1737776;81;21475;-63
2021/01/02 08:15:36;;;;;;;21.90;11.50;;;;;;;3.78;81.71;99593.67;1737712;82;21300;-73
2021/01/02 08:18:07;;;;;;;22.17;11.15;;;;;;;3.88;81.62;99599.69;1732960;81;21317;-61
2021/01/02 08:20:37;;;;;;;21.42;12.98;;;;;;;3.96;81.32;99597.09;1730531;82;21241;-61
2021/01/02 08:23:09;;;;;;;20.57;10.08;;;;;;;4.06;81.08;99605.66;1790016;79;21114;-58
2021/01/02 08:25:37;;;;;;;19.75;10.88;;;;;;;4.14;80.73;99609.44;1784894;79;21148;-60
2021/01/02 08:28:06;;;;;;;18.70;11.12;;;;;;;4.16;80.54;99609.94;1780551;79;21228;-61
2021/01/02 08:30:34;;;;;;;19.62;11.75;;;;;;;4.23;80.29;99614.53;1779565;79;21167;-68
2021/01/02 08:33:05;;;;;;;19.48;11.15;;;;;;;4.25;80.25;99613.80;1757862;81;21319;-73
2021/01/02 08:35:42;;;;;;;20.37;13.48;;;;;;;4.31;79.90;99620.87;1779377;81;21166;-73
2021/01/02 08:38:12;;;;;;;20.10;11.95;;;;;;;4.38;79.91;99625.88;1779452;81;21179;-71
2021/01/02 08:40:49;;;;;;;20.08;12.50;;;;;;;4.39;79.74;99619.53;1779278;80;21239;-69
2021/01/02 08:43:25;;;;;;;20.70;11.97;;;;;;;4.43;79.56;99623.99;1779483;80;21207;-70
2021/01/02 08:46:03;;;;;;;20.12;11.15;;;;;;;4.51;79.31;99618.83;1779408;80;21178;-70
2021/01/02 08:48:31;;;;;;;18.60;10.82;;;;;;;4.57;79.25;99616.53;1779390;81;21159;-68
2021/01/02 08:50:59;;;;;;;22.02;11.53;;;;;;;4.65;79.02;99614.73;1779514;80;21146;-70
2021/01/02 08:53:33;;;;;;;19.07;11.03;;;;;;;4.71;78.50;99618.86;1779583;81;21570;-68
2021/01/02 08:56:21;;;;;;;18.15;11.40;;;;;;;4.75;78.53;99624.15;1779247;80;21628;-70
2021/01/02 08:58:49;;;;;;;22.42;12.15;;;;;;;4.82;78.28;99624.03;1779336;81;21159;-69
2021/01/02 09:01:17;;;;;;;22.00;12.93;;;;;;;4.84;78.13;99632.66;1779482;80;21300;-69
2021/01/02 09:03:46;;;;;;;21.33;12.25;;;;;;;4.86;77.81;99627.20;1779485;80;21158;-70
2021/01/02 09:06:25;;;;;;;16.10;10.03;;;;;;;4.85;77.86;99634.80;1779456;81;21150;-69
2021/01/02 09:09:03;;;;;;;16.15;10.05;;;;;;;4.93;77.76;99640.71;1779505;81;21618;-70
2021/01/02 09:11:50;;;;;;;17.32;10.15;;;;;;;5.21;77.91;99630.00;1783084;79;21317;-64
2021/01/02 09:14:19;;;;;;;17.15;9.45;;;;;;;5.50;77.11;99629.51;1742244;82;21289;-66
2021/01/02 09:17:03;;;;;;;19.48;12.58;;;;;;;5.74;76.72;99632.19;1811081;79;21158;-69
2021/01/02 09:19:33;;;;;;;23.67;16.02;;;;;;;5.97;75.84;99639.56;1813090;79;21137;-64
2021/01/02 09:22:00;;;;;;;22.60;14.73;;;;;;;6.15;75.19;99637.72;1790465;79;21280;-64
2021/01/02 09:24:30;;;;;;;17.27;11.28;;;;;;;6.23;74.92;99642.77;1800945;79;21150;-65
2021/01/02 09:26:58;;;;;;;17.98;11.68;;;;;;;6.31;74.22;99639.22;1819728;79;21138;-65
2021/01/02 09:29:26;;;;;;;18.73;11.48;;;;;;;6.34;73.75;99642.30;1815489;79;21154;-64
2021/01/02 09:31:53;;;;;;;16.50;10.55;;;;;;;6.26;73.77;99644.16;1787632;80;21284;-64
2021/01/02 09:34:21;;;;;;;17.90;11.45;;;;;;;6.26;73.75;99644.58;1787514;80;21122;-64
2021/01/02 09:36:51;;;;;;;21.12;12.43;;;;;;;6.25;73.65;99636.40;1787541;80;21122;-65
2021/01/02 09:39:24;;;;;;;16.95;9.53;;;;;;;6.29;73.60;99642.98;1787418;80;21170;-63
2021/01/02 09:41:51;;;;;;;18.75;10.35;;;;;;;6.37;73.50;99648.41;1787673;80;21138;-62
2021/01/02 09:44:20;;;;;;;18.30;11.33;;;;;;;6.43;73.20;99648.63;1787714;80;21561;-64
2021/01/02 09:46:51;;;;;;;17.87;10.35;;;;;;;6.43;73.07;99647.77;1787626;80;21624;-63
2021/01/02 09:49:20;;;;;;;16.82;10.50;;;;;;;6.43;73.17;99649.05;1787765;80;21166;-65
2021/01/02 09:51:48;;;;;;;21.10;11.22;;;;;;;6.47;73.03;99648.36;1787671;80;21157;-64
2021/01/02 09:54:15;;;;;;;19.82;11.05;;;;;;;6.45;73.10;99642.30;1787518;80;21284;-64
2021/01/02 09:56:45;;;;;;;20.65;11.03;;;;;;;6.38;73.08;99651.84;1787684;80;21138;-65
2021/01/02 09:59:15;;;;;;;23.27;10.48;;;;;;;6.35;73.28;99650.45;1787828;80;21166;-66
2021/01/02 10:01:43;;;;;;;19.80;10.90;;;;;;;6.32;73.39;99656.75;1787493;80;21162;-62
2021/01/02 10:04:11;;;;;;;14.50;8.68;;;;;;;6.19;73.41;99651.13;1787476;80;21308;-64
2021/01/02 10:06:46;;;;;;;18.48;10.05;;;;;;;6.06;73.45;99650.19;1787563;80;21155;-64
2021/01/02 10:09:14;;;;;;;17.80;10.43;;;;;;;5.96;73.73;99645.51;1787741;80;21136;-65
2021/01/02 10:11:43;;;;;;;19.45;10.10;;;;;;;5.88;74.00;99645.16;1787617;80;21179;-64
2021/01/02 10:14:11;;;;;;;15.65;9.03;;;;;;;5.88;74.41;99648.59;1787913;80;21152;-62
2021/01/02 10:16:39;;;;;;;18.12;11.22;;;;;;;5.98;74.55;99648.60;1787597;80;21132;-66
2021/01/02 10:19:09;;;;;;;18.85;11.22;;;;;;;6.06;74.38;99645.06;1783514;80;21298;-64
2021/01/02 10:21:37;;;;;;;16.87;10.18;;;;;;;6.09;74.53;99643.48;1779531;81;21172;-64
2021/01/02 10:24:08;;;;;;;18.67;11.25;;;;;;;6.15;74.27;99645.41;1779589;80;21128;-66
2021/01/02 10:26:35;;;;;;;20.02;11.75;;;;;;;6.11;74.22;99649.97;1779533;81;21167;-65
2021/01/02 10:29:04;;;;;;;18.65;11.08;;;;;;;6.11;74.26;99650.34;1779431;80;21156;-64
2021/01/02 10:31:33;;;;;;;19.05;11.18;;;;;;;6.13;74.20;99657.31;1779250;80;21152;-64
2021/01/02 10:34:01;;;;;;;19.45;11.10;;;;;;;6.10;74.38;99650.76;1779271;80;21128;-64
2021/01/02 10:36:28;;;;;;;16.12;9.88;;;;;;;6.09;74.19;99640.92;1779559;80;21562;-71
2021/01/02 10:38:56;;;;;;;16.95;9.68;;;;;;;6.07;74.15;99651.92;1779327;81;21152;-68
2021/01/02 10:41:24;;;;;;;18.17;10.72;;;;;;;6.01;74.27;99651.69;1779461;81;21160;-70
2021/01/02 10:43:52;;;;;;;18.25;10.00;;;;;;;6.06;74.43;99648.91;1779340;81;21148;-68
2021/01/02 10:46:19;;;;;;;15.68;9.05;;;;;;;6.11;74.06;99655.09;1779293;81;21163;-68
2021/01/02 10:48:47;;;;;;;16.30;9.30;;;;;;;6.12;73.95;99651.70;1779328;80;21171;-75
2021/01/02 10:51:17;;;;;;;15.30;9.53;;;;;;;6.17;73.88;99652.75;1779635;81;21136;-68
2021/01/02 10:53:45;;;;;;;15.75;8.65;;;;;;;6.24;73.75;99657.31;1779500;81;21156;-69
2021/01/02 10:56:17;;;;;;;19.70;9.68;;;;;;;6.33;73.58;99654.22;1779467;81;21160;-73
2021/01/02 10:58:45;;;;;;;17.37;9.90;;;;;;;6.41;73.47;99649.39;1779281;80;21148;-68
2021/01/02 11:01:14;;;;;;;17.60;11.57;;;;;;;6.61;73.08;99656.16;1779446;81;21111;-69
2021/01/02 11:03:41;;;;;;;17.73;10.53;;;;;;;6.92;72.17;99653.44;1779291;81;21170;-69
2021/01/02 11:06:15;;;;;;;17.98;10.53;;;;;;;6.80;71.83;99645.33;1779404;81;21553;-71
2021/01/02 11:08:46;;;;;;;19.17;10.65;;;;;;;6.75;72.09;99646.42;1779288;80;21158;-71
2021/01/02 11:11:21;;;;;;;16.57;9.55;;;;;;;6.78;72.14;99654.64;1779293;80;21162;-68
2021/01/02 11:13:49;;;;;;;17.45;11.15;;;;;;;6.77;72.11;99659.29;1779487;80;21746;-70
2021/01/02 11:16:16;;;;;;;17.00;10.40;;;;;;;6.80;72.12;99662.86;1779492;81;21304;-70
2021/01/02 11:18:44;;;;;;;18.37;10.25;;;;;;;6.84;72.20;99659.58;1779364;80;21162;-68
2021/01/02 11:21:11;;;;;;;19.45;10.68;;;;;;;6.88;72.18;99661.86;1779336;80;21261;-70
2021/01/02 11:23:39;;;;;;;20.52;11.95;;;;;;;6.90;71.99;99662.80;1779410;81;21124;-69
2021/01/02 11:26:10;;;;;;;16.85;10.70;;;;;;;6.89;71.83;99661.03;1779517;81;21189;-68
2021/01/02 11:28:38;;;;;;;17.30;9.53;;;;;;;6.85;71.87;99672.02;1779738;80;21308;-67
2021/01/02 11:31:05;;;;;;;18.27;10.05;;;;;;;6.85;72.00;99672.02;1779495;80;21174;-70
2021/01/02 11:33:33;;;;;;;19.85;10.32;;;;;;;6.89;71.77;99664.88;1779363;81;21521;-69
2021/01/02 11:36:01;;;;;;;20.10;11.03;;;;;;;6.89;71.98;99667.03;1779221;80;21195;-68
2021/01/02 11:38:28;;;;;;;17.12;9.70;;;;;;;6.96;71.84;99668.14;1779449;80;21724;-69
2021/01/02 11:40:56;;;;;;;17.80;9.33;;;;;;;7.01;71.72;99669.19;1779703;80;21170;-71
2021/01/02 11:43:24;;;;;;;16.00;9.45;;;;;;;7.04;71.61;99670.98;1779496;81;21127;-70
2021/01/02 11:45:51;;;;;;;16.35;8.50;;;;;;;7.10;71.39;99666.97;1779643;81;21142;-69
2021/01/02 11:48:19;;;;;;;17.87;9.55;;;;;;;7.14;71.02;99661.10;1779540;81;21154;-70
2021/01/02 11:50:47;;;;;;;18.25;11.28;;;;;;;7.18;70.75;99670.67;1779476;80;21565;-71
2021/01/02 11:53:15;;;;;;;18.50;10.18;;;;;;;7.26;70.68;99667.09;1779303;80;21545;-69
2021/01/02 11:55:42;;;;;;;19.42;10.50;;;;;;;7.32;70.33;99668.58;1779245;81;21145;-70